Time;durP1;ratioP1;P1;durP2;ratioP2;P2;SDS_P1;SDS_P2;PMS_P1;PMS_P2;Temp;Humidity;BMP_temperature;BMP_pressure;BME280_temperature;BME280_humidity;BME280_pressure;Samples;Min_cycle;Max_cycle;Signal;HPM_P1;HPM_P2
2021/01/14 00:00:38;;;;;;;4.82;1.63;;;0.00;88.00;;;;;;4989491;28;20042;-66
2021/01/14 00:03:09;;;;;;;6.78;1.65;;;0.00;88.10;;;;;;4990717;28;20030;-65
2021/01/14 00:05:34;;;;;;;;;;;0.10;87.80;;;;;;4991331;28;20119;-65
2021/01/14 00:08:00;;;;;;;4.60;1.70;;;0.10;87.50;;;;;;4991422;28;19933;-65
2021/01/14 00:10:25;;;;;;;4.20;1.52;;;0.10;87.90;;;;;;4994258;28;20091;-66
2021/01/14 00:12:51;;;;;;;2.03;1.00;;;0.10;87.90;;;;;;4991223;28;20137;-65
2021/01/14 00:15:17;;;;;;;5.60;1.92;;;0.10;88.00;;;;;;4990759;28;20034;-66
2021/01/14 00:17:44;;;;;;;7.65;1.80;;;0.10;87.70;;;;;;4991583;28;20096;-65
2021/01/14 00:20:12;;;;;;;1.98;1.15;;;0.10;88.20;;;;;;4990903;28;20079;-65
2021/01/14 00:22:38;;;;;;;4.18;1.17;;;0.20;87.90;;;;;;4971399;28;20021;-66
2021/01/14 00:25:06;;;;;;;4.15;1.73;;;0.20;88.00;;;;;;4991468;28;20508;-66
2021/01/14 00:27:32;;;;;;;5.97;1.45;;;0.20;88.40;;;;;;4990588;28;20048;-66
2021/01/14 00:29:58;;;;;;;5.55;1.88;;;0.20;88.20;;;;;;4991060;28;20716;-66
2021/01/14 00:32:24;;;;;;;3.22;1.60;;;0.20;88.20;;;;;;4991225;28;20114;-65
2021/01/14 00:34:50;;;;;;;7.10;1.90;;;0.20;88.50;;;;;;5013169;23;20545;-68
2021/01/14 00:40:00;;;;;;;4.75;1.85;;;0.30;87.90;;;;;;4988197;28;20040;-67
2021/01/14 00:42:25;;;;;;;5.15;1.90;;;0.30;88.20;;;;;;4988764;28;20527;-68
2021/01/14 00:44:51;;;;;;;5.43;1.67;;;0.30;88.30;;;;;;4991281;28;20048;-68
2021/01/14 00:47:17;;;;;;;3.55;1.40;;;0.20;88.60;;;;;;4991620;28;20029;-68
2021/01/14 00:49:42;;;;;;;5.80;1.70;;;0.30;88.50;;;;;;4990678;28;20033;-68
2021/01/14 00:52:11;;;;;;;5.70;2.20;;;0.30;88.80;;;;;;4991732;28;20628;-67
2021/01/14 00:54:40;;;;;;;5.88;1.70;;;0.20;88.80;;;;;;4991496;28;20029;-68
2021/01/14 00:57:09;;;;;;;4.53;1.95;;;0.20;88.90;;;;;;4973940;28;20057;-67
2021/01/14 00:59:36;;;;;;;2.60;1.50;;;0.20;88.60;;;;;;4989770;28;20121;-68
2021/01/14 01:02:03;;;;;;;5.53;2.10;;;0.10;88.60;;;;;;4989847;28;20044;-69
2021/01/14 01:04:29;;;;;;;7.25;2.30;;;0.10;89.10;;;;;;4992188;28;20029;-68
2021/01/14 01:06:55;;;;;;;4.00;1.73;;;0.10;88.90;;;;;;5010625;28;20375;-67
2021/01/14 01:09:20;;;;;;;8.52;2.35;;;0.10;89.00;;;;;;5006192;28;20018;-67
2021/01/14 01:11:46;;;;;;;6.18;2.08;;;0.10;89.20;;;;;;5009246;28;20502;-67
2021/01/14 01:14:11;;;;;;;8.45;1.95;;;0.10;89.50;;;;;;5010251;28;20058;-68
2021/01/14 01:16:37;;;;;;;4.90;2.05;;;0.10;89.40;;;;;;5011161;28;20117;-67
2021/01/14 01:19:03;;;;;;;5.13;2.22;;;0.10;89.70;;;;;;5006242;28;20034;-67
2021/01/14 01:21:28;;;;;;;5.95;2.00;;;0.10;89.60;;;;;;5012070;28;20441;-68
2021/01/14 01:23:54;;;;;;;6.03;2.40;;;0.10;89.80;;;;;;5009721;28;20017;-67
2021/01/14 01:26:20;;;;;;;6.45;1.80;;;0.20;89.60;;;;;;5022036;28;20030;-68
2021/01/14 01:28:46;;;;;;;5.20;2.10;;;0.20;89.70;;;;;;5008977;28;20024;-68
2021/01/14 01:31:13;;;;;;;8.18;2.33;;;0.20;89.60;;;;;;5010026;28;20443;-67
2021/01/14 01:33:39;;;;;;;6.22;2.55;;;0.30;89.80;;;;;;5010304;28;20048;-67
2021/01/14 01:36:05;;;;;;;6.30;2.78;;;0.30;89.50;;;;;;5011566;28;20092;-68
2021/01/14 01:38:31;;;;;;;5.78;2.42;;;0.30;89.50;;;;;;5007131;28;20030;-68
2021/01/14 01:41:01;;;;;;;7.72;2.70;;;0.30;89.60;;;;;;5011626;28;20041;-67
2021/01/14 01:43:28;;;;;;;8.80;2.80;;;0.30;89.70;;;;;;5010129;28;20052;-67
2021/01/14 01:45:55;;;;;;;6.88;2.40;;;0.30;90.00;;;;;;5011677;28;20454;-68
2021/01/14 01:48:21;;;;;;;4.55;2.42;;;0.40;90.00;;;;;;5006540;28;20101;-67
2021/01/14 01:50:49;;;;;;;6.75;2.53;;;0.40;90.10;;;;;;4993645;28;20033;-67
2021/01/14 01:53:15;;;;;;;5.20;2.22;;;0.40;90.10;;;;;;5009383;28;20033;-67
2021/01/14 01:55:45;;;;;;;7.55;2.95;;;0.40;90.00;;;;;;5007758;28;20034;-67
2021/01/14 01:58:12;;;;;;;6.33;2.67;;;0.40;90.40;;;;;;5009199;28;20029;-69
2021/01/14 02:00:38;;;;;;;7.07;2.60;;;0.40;90.30;;;;;;5018547;28;20372;-68
2021/01/14 02:03:04;;;;;;;9.13;2.97;;;0.40;90.40;;;;;;5010733;28;20021;-69
2021/01/14 02:05:30;;;;;;;9.45;2.72;;;0.50;90.60;;;;;;5005722;28;20076;-68
2021/01/14 02:08:06;;;;;;;5.18;3.20;;;0.50;90.40;;;;;;5009607;28;20548;-68
2021/01/14 02:10:36;;;;;;;10.05;3.05;;;0.40;90.50;;;;;;5010160;28;20038;-67
2021/01/14 02:13:15;;;;;;;6.22;3.25;;;0.40;90.70;;;;;;5004463;28;20553;-68
2021/01/14 02:15:42;;;;;;;6.88;3.35;;;0.40;91.40;;;;;;5007275;28;20033;-68
2021/01/14 02:18:08;;;;;;;8.77;3.30;;;0.40;92.00;;;;;;5009174;28;20528;-68
2021/01/14 02:20:36;;;;;;;7.03;3.05;;;0.40;92.20;;;;;;5009116;28;20034;-68
2021/01/14 02:23:10;;;;;;;9.15;3.58;;;0.30;92.30;;;;;;5009582;28;20025;-67
2021/01/14 02:26:04;;;;;;;11.10;3.60;;;0.30;92.40;;;;;;5008753;28;20134;-68
2021/01/14 02:28:31;;;;;;;6.47;3.47;;;0.30;92.60;;;;;;5018188;28;20514;-67
2021/01/14 02:30:58;;;;;;;9.80;3.95;;;0.40;92.90;;;;;;5010516;28;20038;-67
2021/01/14 02:33:23;;;;;;;7.60;3.40;;;0.30;93.10;;;;;;5008990;28;20036;-67
2021/01/14 02:35:49;;;;;;;11.00;3.88;;;0.30;93.30;;;;;;5007334;28;20030;-67
2021/01/14 02:38:15;;;;;;;9.77;3.83;;;0.30;93.40;;;;;;5009013;28;20110;-69
2021/01/14 02:40:40;;;;;;;7.80;3.97;;;0.30;93.60;;;;;;5011686;28;20555;-67
2021/01/14 02:43:06;;;;;;;11.93;3.88;;;0.30;93.80;;;;;;5010545;28;20033;-67
2021/01/14 02:45:33;;;;;;;7.75;3.75;;;0.30;93.90;;;;;;5006987;28;20080;-68
2021/01/14 02:48:00;;;;;;;6.22;3.75;;;0.30;94.10;;;;;;5008774;28;20465;-67
2021/01/14 02:50:28;;;;;;;9.25;4.85;;;0.30;94.20;;;;;;5004680;28;20034;-68
2021/01/14 02:52:58;;;;;;;7.35;4.30;;;0.30;94.40;;;;;;5009970;28;20021;-68
2021/01/14 02:55:24;;;;;;;6.75;4.03;;;0.30;94.50;;;;;;5007052;28;20045;-68
2021/01/14 02:57:49;;;;;;;10.82;4.15;;;0.30;94.60;;;;;;5009639;28;20386;-67
2021/01/14 03:00:16;;;;;;;8.18;3.95;;;0.30;94.50;;;;;;5012028;28;20034;-68
2021/01/14 03:02:42;;;;;;;9.88;4.65;;;0.30;94.50;;;;;;5009288;28;20381;-68
2021/01/14 03:05:08;;;;;;;11.27;5.50;;;0.30;94.50;;;;;;5005810;28;20118;-68
2021/01/14 03:07:33;;;;;;;10.20;4.53;;;0.40;94.60;;;;;;5009562;28;20429;-67
2021/01/14 03:09:59;;;;;;;8.13;4.07;;;0.40;94.60;;;;;;5007011;28;20042;-68
2021/01/14 03:12:24;;;;;;;9.02;5.25;;;0.40;94.70;;;;;;5008446;28;20034;-68
2021/01/14 03:14:50;;;;;;;9.95;4.15;;;0.40;94.70;;;;;;5004883;28;20160;-68
2021/01/14 03:17:15;;;;;;;11.25;4.72;;;0.40;94.70;;;;;;5009499;28;20073;-68
2021/01/14 03:19:41;;;;;;;15.23;4.88;;;0.40;94.80;;;;;;5007911;28;20096;-67
2021/01/14 03:22:07;;;;;;;16.88;5.22;;;0.40;94.90;;;;;;5007613;28;20034;-68
2021/01/14 03:24:32;;;;;;;9.95;5.35;;;0.40;95.00;;;;;;5005122;28;20416;-68
2021/01/14 03:26:58;;;;;;;11.82;5.03;;;0.40;95.20;;;;;;5017636;28;20033;-68
2021/01/14 03:29:23;;;;;;;13.27;5.60;;;0.40;95.20;;;;;;5007851;28;20045;-68
2021/01/14 03:31:49;;;;;;;10.73;5.95;;;0.40;95.50;;;;;;5011519;28;20117;-68
2021/01/14 03:34:14;;;;;;;15.10;5.70;;;0.40;95.50;;;;;;5011107;28;20335;-67
2021/01/14 03:36:56;;;;;;;15.48;6.00;;;0.40;95.50;;;;;;5013811;28;20025;-68
2021/01/14 03:39:31;;;;;;;9.75;5.32;;;0.40;95.60;;;;;;5011594;28;20026;-68
2021/01/14 03:41:57;;;;;;;11.32;5.53;;;0.40;95.70;;;;;;5013504;28;20254;-67
2021/01/14 03:44:24;;;;;;;14.85;5.80;;;0.40;95.80;;;;;;5008791;28;20425;-68
2021/01/14 03:46:51;;;;;;;11.13;6.15;;;0.40;95.90;;;;;;5013152;28;20052;-68
2021/01/14 03:49:18;;;;;;;10.65;6.32;;;0.40;95.90;;;;;;5012272;28;20050;-67
2021/01/14 03:51:48;;;;;;;11.20;6.78;;;0.40;96.00;;;;;;5013282;28;20036;-68
2021/01/14 03:54:14;;;;;;;9.85;5.68;;;0.40;96.00;;;;;;5009840;28;20037;-68
2021/01/14 03:56:41;;;;;;;11.35;6.05;;;0.40;95.90;;;;;;5013236;28;20041;-68
2021/01/14 03:59:07;;;;;;;9.15;5.28;;;0.40;95.90;;;;;;5009771;28;20037;-68
2021/01/14 04:01:33;;;;;;;10.52;5.95;;;0.50;95.90;;;;;;5010236;28;20054;-68
2021/01/14 04:03:59;;;;;;;12.02;6.35;;;0.40;95.90;;;;;;5011267;28;20045;-68
2021/01/14 04:06:36;;;;;;;15.15;5.93;;;0.40;96.00;;;;;;5011900;28;20030;-69
2021/01/14 04:09:04;;;;;;;13.63;6.15;;;0.50;96.00;;;;;;5010453;28;20076;-68
2021/01/14 04:11:30;;;;;;;10.10;5.68;;;0.50;96.00;;;;;;5010007;28;20037;-72
2021/01/14 04:13:55;;;;;;;11.85;5.80;;;0.50;96.00;;;;;;5013477;28;20108;-68
2021/01/14 04:16:21;;;;;;;10.18;6.18;;;0.50;96.00;;;;;;5009381;28;20038;-67
2021/01/14 04:18:47;;;;;;;15.13;6.55;;;0.50;96.00;;;;;;5011695;28;20117;-68
2021/01/14 04:21:14;;;;;;;10.05;6.15;;;0.50;96.00;;;;;;5008596;28;20048;-69
2021/01/14 04:23:39;;;;;;;13.77;6.78;;;0.50;96.00;;;;;;5012425;28;20443;-68
2021/01/14 04:26:05;;;;;;;17.88;6.88;;;0.50;96.10;;;;;;5011382;28;20122;-68
2021/01/14 04:28:31;;;;;;;14.63;6.65;;;0.50;96.10;;;;;;5012391;28;20022;-67
2021/01/14 04:30:56;;;;;;;16.10;7.10;;;0.50;96.00;;;;;;5009984;28;20018;-68
2021/01/14 04:33:22;;;;;;;15.35;6.22;;;0.50;96.00;;;;;;5012361;28;20084;-67
2021/01/14 04:35:51;;;;;;;14.05;6.55;;;0.50;96.20;;;;;;5011561;28;20052;-68
2021/01/14 04:38:19;;;;;;;13.07;6.72;;;0.40;96.20;;;;;;4994384;28;20030;-69
2021/01/14 04:40:45;;;;;;;11.60;6.35;;;0.40;96.20;;;;;;5008341;28;20395;-67
2021/01/14 04:43:13;;;;;;;13.07;6.82;;;0.50;96.30;;;;;;5022338;28;20473;-67
2021/01/14 04:45:40;;;;;;;12.20;5.97;;;0.50;96.20;;;;;;5011377;28;20429;-68
2021/01/14 04:48:07;;;;;;;10.63;6.50;;;0.50;96.20;;;;;;5008187;28;20029;-67
2021/01/14 04:50:33;;;;;;;11.40;6.20;;;0.50;96.20;;;;;;4993221;28;20524;-67
2021/01/14 04:53:00;;;;;;;12.80;6.15;;;0.50;96.20;;;;;;5011916;28;20130;-68
2021/01/14 04:55:29;;;;;;;11.82;5.93;;;0.50;96.10;;;;;;5010637;28;20022;-67
2021/01/14 04:57:55;;;;;;;16.63;7.15;;;0.60;96.10;;;;;;5012113;28;20432;-67
2021/01/14 05:00:27;;;;;;;14.70;6.93;;;0.50;96.00;;;;;;5010249;28;20079;-67
2021/01/14 05:02:57;;;;;;;12.02;7.07;;;0.50;96.00;;;;;;5013543;28;20057;-67
2021/01/14 05:05:24;;;;;;;11.80;6.67;;;0.50;96.00;;;;;;5016488;28;20025;-68
2021/01/14 05:08:06;;;;;;;14.25;6.78;;;0.60;96.00;;;;;;5009007;28;20285;-67
2021/01/14 05:10:32;;;;;;;;;;;0.60;96.00;;;;;;5006937;28;20478;-67
2021/01/14 05:12:59;;;;;;;13.50;6.78;;;0.60;96.00;;;;;;5011308;28;20360;-67
2021/01/14 05:15:28;;;;;;;11.85;7.03;;;0.60;96.00;;;;;;4989703;28;20030;-68
2021/01/14 05:17:58;;;;;;;15.63;7.75;;;0.60;96.00;;;;;;4996979;28;20360;-68
2021/01/14 05:20:25;;;;;;;11.90;7.33;;;0.60;96.00;;;;;;5009713;28;20453;-68
2021/01/14 05:23:05;;;;;;;13.88;7.72;;;0.60;96.10;;;;;;5011331;28;20033;-68
2021/01/14 05:25:32;;;;;;;14.95;7.88;;;0.60;96.10;;;;;;5012148;28;20029;-67
2021/01/14 05:28:08;;;;;;;13.50;7.32;;;0.60;96.00;;;;;;5017477;28;20033;-67
2021/01/14 05:30:34;;;;;;;17.92;7.72;;;0.60;96.00;;;;;;5001971;28;20038;-68
2021/01/14 05:32:59;;;;;;;14.73;8.32;;;0.60;96.00;;;;;;4985512;28;20041;-67
2021/01/14 05:35:29;;;;;;;17.30;8.95;;;0.60;96.00;;;;;;4986494;28;20076;-67
2021/01/14 05:38:03;;;;;;;16.33;8.02;;;0.60;96.00;;;;;;4989163;28;20649;-69
2021/01/14 05:40:29;;;;;;;15.70;9.25;;;0.60;96.00;;;;;;4991454;28;20636;-68
2021/01/14 05:43:06;;;;;;;13.55;7.90;;;0.70;96.10;;;;;;4991293;28;20112;-68
2021/01/14 05:45:35;;;;;;;14.82;8.52;;;0.60;96.00;;;;;;4990548;28;20121;-68
2021/01/14 05:48:08;;;;;;;16.70;9.10;;;0.60;95.90;;;;;;4974383;28;20418;-68
2021/01/14 05:50:42;;;;;;;17.08;8.70;;;0.60;95.90;;;;;;4973312;28;20029;-68
2021/01/14 05:53:17;;;;;;;15.82;8.98;;;0.60;96.00;;;;;;4990714;28;20057;-68
2021/01/14 05:55:45;;;;;;;17.42;8.27;;;0.60;96.00;;;;;;5005873;28;20087;-68
2021/01/14 05:58:17;;;;;;;16.27;8.05;;;0.60;96.00;;;;;;5011007;28;20481;-68
2021/01/14 06:00:47;;;;;;;17.27;8.80;;;0.60;95.90;;;;;;4994948;28;20129;-68
2021/01/14 06:03:30;;;;;;;13.93;7.22;;;0.60;95.80;;;;;;5008727;28;20116;-68
2021/01/14 06:05:57;;;;;;;15.20;7.43;;;0.70;95.60;;;;;;5008406;28;20022;-68
2021/01/14 06:08:25;;;;;;;19.83;7.90;;;0.60;95.60;;;;;;5003113;28;20022;-68
2021/01/14 06:10:51;;;;;;;19.67;8.52;;;0.60;95.60;;;;;;5007870;28;20058;-68
2021/01/14 06:13:17;;;;;;;16.45;7.53;;;0.60;95.50;;;;;;5010342;28;20037;-67
2021/01/14 06:15:43;;;;;;;21.17;9.82;;;0.60;95.50;;;;;;5010480;28;20542;-68
2021/01/14 06:18:11;;;;;;;14.88;8.07;;;0.70;95.50;;;;;;5005553;28;20092;-67
2021/01/14 06:20:51;;;;;;;18.10;7.88;;;0.60;95.30;;;;;;5011728;28;20116;-68
2021/01/14 06:23:19;;;;;;;15.38;7.90;;;0.70;95.40;;;;;;5009274;28;20034;-67
2021/01/14 06:25:50;;;;;;;16.65;8.18;;;0.70;95.20;;;;;;5009844;28;20026;-67
2021/01/14 06:28:18;;;;;;;13.73;7.45;;;0.70;95.20;;;;;;5008538;28;20397;-68
2021/01/14 06:31:24;;;;;;;13.82;7.10;;;0.60;95.20;;;;;;5009157;28;20037;-68
2021/01/14 06:33:52;;;;;;;16.75;8.73;;;0.70;95.10;;;;;;4911297;29;20052;-67
2021/01/14 06:36:20;;;;;;;16.02;7.78;;;0.70;95.00;;;;;;5031543;23;20072;-66
2021/01/14 06:38:47;;;;;;;18.92;8.57;;;0.70;94.90;;;;;;4998246;28;20152;-65
2021/01/14 06:41:13;;;;;;;36.78;18.50;;;0.70;94.80;;;;;;5003082;28;20446;-65
2021/01/14 06:43:41;;;;;;;20.95;11.25;;;0.70;94.70;;;;;;5004232;28;20452;-66
2021/01/14 06:46:15;;;;;;;15.63;8.48;;;0.70;94.90;;;;;;5007214;28;20030;-65
2021/01/14 06:48:48;;;;;;;15.20;8.45;;;0.70;95.00;;;;;;4984737;28;20105;-66
2021/01/14 06:51:22;;;;;;;12.80;7.95;;;0.70;94.80;;;;;;4979733;28;20100;-66
2021/01/14 06:53:51;;;;;;;13.43;6.97;;;0.70;94.90;;;;;;4983252;28;20030;-65
2021/01/14 06:56:20;;;;;;;14.80;7.18;;;0.70;94.90;;;;;;4981655;28;20197;-66
2021/01/14 06:58:48;;;;;;;11.38;6.00;;;0.70;94.80;;;;;;4981158;28;20030;-66
2021/01/14 07:01:17;;;;;;;12.40;6.65;;;0.70;94.50;;;;;;4978682;28;20551;-66
2021/01/14 07:04:00;;;;;;;12.43;6.57;;;0.70;94.50;;;;;;4985541;28;20162;-66
2021/01/14 07:06:27;;;;;;;14.93;7.00;;;0.70;94.50;;;;;;4982494;28;20050;-65
2021/01/14 07:09:17;;;;;;;16.67;7.30;;;0.60;94.50;;;;;;4981341;28;20129;-67
2021/01/14 07:11:46;;;;;;;16.88;7.18;;;0.60;94.80;;;;;;4981778;28;20058;-66
2021/01/14 07:14:20;;;;;;;16.42;7.15;;;0.60;94.80;;;;;;4985364;28;20459;-66
2021/01/14 07:16:56;;;;;;;13.18;6.93;;;0.60;94.70;;;;;;4983600;28;20045;-65
2021/01/14 07:19:22;;;;;;;13.40;6.57;;;0.50;94.70;;;;;;4981866;28;20031;-66
2021/01/14 07:21:48;;;;;;;15.32;7.50;;;0.50;94.90;;;;;;4981329;28;20436;-65
2021/01/14 07:24:26;;;;;;;15.63;7.65;;;0.50;94.90;;;;;;4979511;28;20087;-66
2021/01/14 07:26:55;;;;;;;14.75;7.47;;;0.40;95.00;;;;;;4984148;28;20034;-66
2021/01/14 07:29:21;;;;;;;14.88;6.95;;;0.40;95.20;;;;;;4978957;28;20045;-66
2021/01/14 07:31:47;;;;;;;14.20;6.90;;;0.30;95.10;;;;;;4983509;28;20571;-66
2021/01/14 07:34:34;;;;;;;19.75;8.55;;;0.40;95.30;;;;;;4986825;28;20034;-66
2021/01/14 07:37:01;;;;;;;14.82;7.95;;;0.30;95.30;;;;;;4989390;28;20436;-66
2021/01/14 07:39:49;;;;;;;13.93;7.15;;;0.30;95.50;;;;;;4987871;28;20044;-66
2021/01/14 07:42:29;;;;;;;17.27;7.32;;;0.20;95.50;;;;;;4982060;28;20113;-66
2021/01/14 07:45:06;;;;;;;14.60;7.40;;;0.10;95.50;;;;;;4983269;28;20125;-66
2021/01/14 07:47:34;;;;;;;19.15;7.85;;;0.10;95.50;;;;;;4978862;28;20034;-66
2021/01/14 07:50:27;;;;;;;14.07;7.95;;;0.00;95.60;;;;;;4983275;28;20766;-66
2021/01/14 07:52:57;;;;;;;24.05;8.52;;;0.00;95.80;;;;;;4980786;28;20239;-66
2021/01/14 07:55:36;;;;;;;15.98;7.75;;;-3276.70;95.90;;;;;;4983988;28;20793;-67
2021/01/14 08:01:06;;;;;;;17.77;7.95;;;-3276.50;96.10;;;;;;4982678;28;20034;-67
2021/01/14 08:03:39;;;;;;;22.23;8.88;;;-3276.50;96.40;;;;;;4980976;28;20379;-66
2021/01/14 08:06:29;;;;;;;20.25;8.15;;;-3276.40;96.40;;;;;;4978242;28;20029;-67
2021/01/14 08:09:06;;;;;;;19.98;9.73;;;-3276.40;96.50;;;;;;4977673;28;20433;-66
2021/01/14 08:11:31;;;;;;;22.05;10.13;;;-3276.40;96.60;;;;;;4999693;28;20046;-65
2021/01/14 08:14:16;;;;;;;26.27;10.13;;;-3276.40;96.80;;;;;;4982835;28;20472;-66
2021/01/14 08:16:49;;;;;;;25.08;10.70;;;-3276.60;96.80;;;;;;4987717;28;20026;-67
2021/01/14 08:19:19;;;;;;;21.73;10.05;;;-3276.70;96.80;;;;;;4984389;28;20053;-68
2021/01/14 08:22:01;;;;;;;26.35;10.20;;;0.00;96.60;;;;;;4983530;28;20034;-69
2021/01/14 08:24:47;;;;;;;17.02;8.98;;;0.00;96.40;;;;;;4985396;28;20101;-67
2021/01/14 08:27:27;;;;;;;23.88;8.98;;;0.20;96.10;;;;;;4991349;28;20073;-67
2021/01/14 08:30:12;;;;;;;19.00;9.03;;;0.20;95.90;;;;;;4986827;28;20042;-69
2021/01/14 08:33:05;;;;;;;17.98;8.38;;;0.30;95.60;;;;;;4984874;28;20041;-68
2021/01/14 08:35:32;;;;;;;19.38;8.20;;;0.30;95.40;;;;;;4984603;28;20056;-68
2021/01/14 08:38:06;;;;;;;17.52;8.45;;;0.40;95.20;;;;;;4989282;28;20030;-68
2021/01/14 08:40:36;;;;;;;16.23;7.28;;;0.50;94.90;;;;;;4983859;28;20058;-67
2021/01/14 08:43:04;;;;;;;10.88;7.07;;;0.50;94.70;;;;;;4984633;28;20548;-66
2021/01/14 08:45:35;;;;;;;13.45;6.93;;;0.50;94.70;;;;;;4989919;28;20038;-68
2021/01/14 08:48:09;;;;;;;15.70;6.88;;;0.60;94.50;;;;;;4986332;28;20026;-68
2021/01/14 08:50:40;;;;;;;13.90;6.43;;;0.60;94.40;;;;;;4987080;28;20041;-68
2021/01/14 08:53:19;;;;;;;13.25;6.22;;;0.60;94.40;;;;;;4986661;28;20031;-67
2021/01/14 08:56:14;;;;;;;16.42;6.60;;;0.70;94.40;;;;;;4987849;28;20483;-68
2021/01/14 08:58:47;;;;;;;9.63;6.00;;;0.70;94.10;;;;;;4986533;28;20030;-67
2021/01/14 09:01:22;;;;;;;10.25;5.90;;;0.80;94.10;;;;;;4988298;28;20084;-68
2021/01/14 09:03:50;;;;;;;13.63;6.07;;;0.80;94.20;;;;;;4972703;28;20581;-68
2021/01/14 09:06:26;;;;;;;14.20;5.50;;;0.80;93.80;;;;;;4970307;28;20085;-67
2021/01/14 09:08:53;;;;;;;11.85;5.30;;;0.80;93.70;;;;;;4989441;28;20097;-67
2021/01/14 09:11:29;;;;;;;11.18;5.93;;;0.90;93.70;;;;;;4987446;28;20037;-67
2021/01/14 09:14:05;;;;;;;11.63;5.93;;;0.90;93.60;;;;;;4983617;28;20407;-68
2021/01/14 09:16:32;;;;;;;10.05;5.43;;;0.90;93.70;;;;;;4975914;28;20065;-68
2021/01/14 09:18:58;;;;;;;13.13;6.18;;;1.00;93.60;;;;;;4983858;28;20049;-68
2021/01/14 09:21:23;;;;;;;12.55;5.80;;;1.00;93.30;;;;;;4983821;28;20476;-67
2021/01/14 09:23:49;;;;;;;9.55;5.22;;;1.00;93.10;;;;;;4980376;28;20034;-67
2021/01/14 09:26:20;;;;;;;15.02;6.47;;;1.00;93.00;;;;;;4985360;28;20482;-68
2021/01/14 09:28:52;;;;;;;9.43;5.80;;;1.00;93.20;;;;;;4979519;28;20424;-67
2021/01/14 09:31:19;;;;;;;9.75;5.68;;;1.00;93.10;;;;;;4990251;28;20030;-67
2021/01/14 09:33:48;;;;;;;9.32;5.57;;;1.00;93.00;;;;;;4981042;28;20109;-68
2021/01/14 09:36:17;;;;;;;9.32;5.25;;;1.10;92.90;;;;;;4981834;28;20128;-67
2021/01/14 09:38:59;;;;;;;11.75;5.47;;;1.10;92.90;;;;;;4988392;28;20131;-68
2021/01/14 09:41:29;;;;;;;17.52;5.53;;;1.10;92.80;;;;;;4985676;28;20118;-68
2021/01/14 09:44:02;;;;;;;11.57;5.27;;;1.10;93.10;;;;;;4987305;28;20023;-68
2021/01/14 09:46:38;;;;;;;12.50;5.63;;;1.20;92.70;;;;;;5003900;28;20149;-68
2021/01/14 09:49:09;;;;;;;16.15;5.85;;;1.20;92.50;;;;;;4986506;28;20113;-67
2021/01/14 09:51:36;;;;;;;9.65;4.85;;;1.30;92.80;;;;;;4977246;28;20030;-67
2021/01/14 09:54:09;;;;;;;11.98;5.38;;;1.30;92.50;;;;;;4979390;28;20399;-68
2021/01/14 09:56:39;;;;;;;10.95;5.30;;;1.40;92.30;;;;;;4988156;28;20029;-68
2021/01/14 09:59:23;;;;;;;11.85;5.45;;;1.40;92.30;;;;;;4983587;28;20022;-67
2021/01/14 10:02:00;;;;;;;11.20;4.82;;;1.40;92.00;;;;;;4986707;28;20172;-68
2021/01/14 10:04:27;;;;;;;9.43;4.90;;;1.50;91.90;;;;;;4983584;28;20487;-68
2021/01/14 10:07:05;;;;;;;12.40;5.38;;;1.50;91.60;;;;;;5013021;28;20058;-68
2021/01/14 10:09:35;;;;;;;11.00;5.20;;;1.60;91.40;;;;;;4987005;28;20026;-69
2021/01/14 10:12:03;;;;;;;10.43;5.13;;;1.60;91.70;;;;;;4993495;28;20116;-70
2021/01/14 10:14:28;;;;;;;12.80;5.55;;;1.70;91.80;;;;;;4981492;28;20057;-68
2021/01/14 10:16:54;;;;;;;9.00;4.95;;;1.70;91.80;;;;;;4990152;28;20066;-67
2021/01/14 10:19:20;;;;;;;10.07;4.68;;;1.70;91.60;;;;;;4995210;28;20505;-68
2021/01/14 10:21:48;;;;;;;10.02;4.97;;;1.60;91.60;;;;;;4986329;28;20732;-67
2021/01/14 10:24:29;;;;;;;9.82;5.18;;;1.60;91.60;;;;;;4976614;28;20094;-69
2021/01/14 10:27:09;;;;;;;;;;;1.50;91.30;;;;;;4982793;28;20118;-68
2021/01/14 10:29:41;;;;;;;10.15;4.63;;;1.50;91.60;;;;;;4983574;28;20294;-68
2021/01/14 10:32:12;;;;;;;10.48;5.05;;;1.40;91.60;;;;;;4984906;28;20510;-68
2021/01/14 10:34:40;;;;;;;10.82;5.20;;;1.40;91.70;;;;;;4981536;28;20053;-68
2021/01/14 10:37:15;;;;;;;11.43;5.25;;;1.40;92.30;;;;;;4995626;28;20561;-67
2021/01/14 10:39:41;;;;;;;10.98;5.00;;;1.50;92.40;;;;;;4983387;28;20026;-67
2021/01/14 10:42:30;;;;;;;13.40;5.15;;;1.40;92.00;;;;;;4988125;28;20040;-68
2021/01/14 10:44:58;;;;;;;11.57;4.93;;;1.40;91.90;;;;;;4982297;28;20028;-68
2021/01/14 10:47:24;;;;;;;9.38;5.25;;;1.40;91.80;;;;;;4984940;28;20030;-68
2021/01/14 10:49:50;;;;;;;13.05;5.35;;;1.40;91.90;;;;;;4987320;28;20091;-68
2021/01/14 10:52:15;;;;;;;11.07;5.10;;;1.30;92.00;;;;;;4985752;28;20018;-68
2021/01/14 10:54:41;;;;;;;12.25;4.95;;;1.30;91.60;;;;;;4985119;28;20026;-69
2021/01/14 10:57:07;;;;;;;13.40;4.93;;;1.30;91.70;;;;;;4993543;28;20066;-67
2021/01/14 10:59:33;;;;;;;11.07;5.63;;;1.20;91.60;;;;;;4989104;28;20025;-68
2021/01/14 11:02:04;;;;;;;10.70;5.40;;;1.20;91.80;;;;;;5001855;28;20142;-67
2021/01/14 11:04:30;;;;;;;8.27;5.35;;;1.20;91.80;;;;;;4980900;28;20031;-68
2021/01/14 11:06:56;;;;;;;10.07;5.45;;;1.30;92.10;;;;;;4984298;28;20092;-68
2021/01/14 11:09:21;;;;;;;7.50;4.72;;;1.30;92.10;;;;;;4977959;28;20038;-68
2021/01/14 11:11:47;;;;;;;11.57;5.45;;;1.30;91.90;;;;;;4974538;28;20497;-67
2021/01/14 11:14:17;;;;;;;11.88;5.85;;;1.30;91.40;;;;;;4977895;28;20030;-68
2021/01/14 11:16:43;;;;;;;13.73;6.67;;;1.30;91.40;;;;;;4978781;28;20037;-67
2021/01/14 11:19:10;;;;;;;14.43;6.03;;;1.40;91.80;;;;;;4981669;28;20034;-69
2021/01/14 11:21:37;;;;;;;8.52;5.13;;;1.50;92.20;;;;;;4975696;28;20034;-67
2021/01/14 11:24:04;;;;;;;11.18;5.68;;;1.40;91.50;;;;;;4967280;28;20030;-68
2021/01/14 11:26:30;;;;;;;11.82;5.78;;;1.40;91.50;;;;;;5011208;28;20503;-68
2021/01/14 11:28:56;;;;;;;9.20;5.45;;;1.30;91.50;;;;;;4977739;28;20503;-68
2021/01/14 11:31:24;;;;;;;8.32;5.32;;;1.30;91.80;;;;;;4982677;28;20050;-68
2021/01/14 11:33:50;;;;;;;9.73;5.90;;;1.30;91.60;;;;;;4997762;28;20058;-68
2021/01/14 11:36:20;;;;;;;12.80;5.88;;;1.30;91.80;;;;;;4976196;28;20038;-68
2021/01/14 11:38:46;;;;;;;10.88;5.85;;;1.30;92.00;;;;;;4974166;28;20539;-68
2021/01/14 11:41:17;;;;;;;13.90;5.97;;;1.30;92.00;;;;;;4984972;28;20109;-69
2021/01/14 11:43:42;;;;;;;9.68;6.00;;;1.30;91.70;;;;;;4980380;28;20026;-68
2021/01/14 11:46:08;;;;;;;12.93;6.78;;;1.30;91.90;;;;;;4984892;28;20026;-68
2021/01/14 11:48:33;;;;;;;11.18;5.78;;;1.30;92.20;;;;;;4984143;28;20384;-68
2021/01/14 11:50:59;;;;;;;9.23;5.72;;;1.20;91.90;;;;;;4983882;28;20125;-68
2021/01/14 11:53:24;;;;;;;9.48;5.75;;;1.20;92.20;;;;;;4985377;28;20026;-68
2021/01/14 11:55:50;;;;;;;9.15;5.47;;;1.20;92.20;;;;;;4986213;28;20107;-68
2021/01/14 11:58:16;;;;;;;9.95;6.03;;;1.20;92.10;;;;;;4985504;28;20033;-68
2021/01/14 12:00:43;;;;;;;9.35;5.20;;;1.20;92.10;;;;;;4984925;28;20026;-68
2021/01/14 12:03:09;;;;;;;10.73;5.47;;;1.20;92.10;;;;;;4989779;28;20230;-68
2021/01/14 12:05:35;;;;;;;15.07;6.13;;;1.20;92.40;;;;;;4986321;28;20057;-67
2021/01/14 12:08:00;;;;;;;11.18;5.20;;;1.20;92.30;;;;;;4984752;28;20105;-68
2021/01/14 12:10:26;;;;;;;13.13;5.40;;;1.20;92.00;;;;;;4987002;28;20026;-68
2021/01/14 12:12:52;;;;;;;10.85;5.38;;;1.20;92.00;;;;;;4980058;28;20104;-68
2021/01/14 12:15:17;;;;;;;10.75;5.72;;;1.30;92.30;;;;;;4983835;28;20129;-68
2021/01/14 12:17:43;;;;;;;9.02;5.40;;;1.30;92.40;;;;;;4987890;28;20111;-68
2021/01/14 12:20:09;;;;;;;9.98;5.30;;;1.20;91.90;;;;;;4985281;28;20058;-67
2021/01/14 12:22:38;;;;;;;14.30;5.63;;;1.30;92.40;;;;;;4985849;28;20034;-67
2021/01/14 12:25:09;;;;;;;16.77;5.90;;;1.20;92.00;;;;;;4985359;28;20089;-68
2021/01/14 12:27:36;;;;;;;12.07;5.35;;;1.20;91.80;;;;;;4984820;28;20030;-68
2021/01/14 12:30:02;;;;;;;10.40;4.97;;;1.20;92.00;;;;;;4983355;28;20113;-67
2021/01/14 12:32:28;;;;;;;8.27;5.20;;;1.30;92.00;;;;;;4979018;28;20038;-67
2021/01/14 12:34:54;;;;;;;10.73;6.00;;;1.30;92.50;;;;;;4985783;28;20125;-67
2021/01/14 12:37:20;;;;;;;10.43;5.88;;;1.30;92.30;;;;;;4987120;28;20033;-68
2021/01/14 12:39:45;;;;;;;11.82;5.95;;;1.20;92.30;;;;;;4986381;28;20126;-68
2021/01/14 12:42:11;;;;;;;11.38;6.13;;;1.20;92.20;;;;;;4989842;28;20128;-68
2021/01/14 12:44:37;;;;;;;13.27;5.80;;;1.10;92.10;;;;;;4987209;28;20468;-68
2021/01/14 12:47:03;;;;;;;11.13;5.07;;;1.20;92.20;;;;;;4987395;28;20030;-67
2021/01/14 12:49:29;;;;;;;10.45;5.07;;;1.10;92.10;;;;;;4985837;28;20046;-67
2021/01/14 12:51:55;;;;;;;14.07;5.60;;;1.10;92.00;;;;;;4983817;28;20050;-67
2021/01/14 12:54:22;;;;;;;9.70;4.95;;;1.10;92.10;;;;;;4985304;28;20034;-67
2021/01/14 12:56:47;;;;;;;11.10;5.60;;;1.10;91.90;;;;;;4987652;28;20022;-68
2021/01/14 12:59:13;;;;;;;11.23;6.20;;;1.10;91.70;;;;;;4985954;28;20045;-67
2021/01/14 13:01:39;;;;;;;9.32;6.22;;;1.10;92.10;;;;;;4974449;28;20049;-67
2021/01/14 13:04:07;;;;;;;10.57;5.75;;;1.10;91.80;;;;;;4976632;28;20026;-67
2021/01/14 13:06:37;;;;;;;10.93;5.32;;;1.10;92.10;;;;;;4986101;28;20022;-67